Aeroporto :
LOGIN :

Iscrizione | Disclaimer

   EN    FR    IT 

 










Sommario :    VFR   VFR Marginale   IFR   IFR Intensivo   IFR Molto Intensivo
Visibilità : 
Base nubi : 
>= 8 km
>= 3000ft
5 / 8 km
1000 / 3000 ft
1500m / 5 km
500 / 1000 ft
800 / 1500m
200 / 500 ft
< 800m
< 200 ft
Simboli :   Temporali  Nebbia  Neve Forte  Precipitazioni Forti  Vento > 20 kt
SIGMETs :   Varie  Temporali  Ghiacco  Turbolenza  Onda orograficha  Ceneri Vulcaniche







- Altitudine del aeroporto : 650 ft
- Codice IATA : ZJI


LSZL - Locarno

ULTIMO METAR :
  • 161620Z AUTO 28004KT 230V330 9999NDV FEW084 27/17 Q1012 RMK

METARs OBSOLETI :
  • 161550Z AUTO 27004KT 240V300 9999NDV NCD 28/16 Q1013 RMK
  • 161520Z AUTO 26004KT 200V320 9999NDV NCD 28/18 Q1013 RMK
  • 161450Z 25004KT 200V290 9999 FEW065 27/16 Q1013 RMK BLU+
  • 161420Z 25004KT 210V290 9999 FEW065 27/17 Q1013 RMK BLU+
  • 161350Z 25006KT 210V280 9999 FEW070 26/17 Q1013 RMK BLU+

TAF TAF LSZL
Valido dal 16 a 12 ore il 16 a 21 ore UTC


161125Z 1612/1621 24005KT CAVOK
TEMPO 1612/1616 9999 FEW050
Nessun NOTAM noto per questo aeroporto.



MetMap, La meteo Aeronautica in un colpo d'occhio ! - Copyright ORBIFLY Dicembre 2007 - Disclaimer

ORBIFLY MET'MAP TEAM :

Programmazione e sviluppo : Alexandra Zaïnal
Concezione e sviluppo : Baudouin d'Aumeries
Co-Programmazione e sviluppo : Marc-Olivier Méhu
Supporto tecnico e logistico : Manuel Goepfert
Aiuto per la traduzione : Arnaldo La Scala

Contatto : metmap@orbifly.com




FONTI E CREDITI :

   NOAA